Time;durP1;ratioP1;P1;durP2;ratioP2;P2;SDS_P1;SDS_P2;PMS_P1;PMS_P2;Temp;Humidity;BMP_temperature;BMP_pressure;BME280_temperature;BME280_humidity;BME280_pressure;Samples;Min_cycle;Max_cycle;Signal;HPM_P1;HPM_P2
2022/07/14 00:00:58;;;;;;;4.20;2.87;;;;;26.10;100926.00;;;;2071912;28;20214;-53
2022/07/14 00:01:59;;;;;;;4.90;2.87;;;;;26.10;100934.00;;;;2071801;28;20233;-53
2022/07/14 00:02:59;;;;;;;4.63;3.00;;;;;26.10;100943.00;;;;2071719;28;20214;-53
2022/07/14 00:04:00;;;;;;;3.67;2.80;;;;;26.10;100943.00;;;;2071736;28;20297;-53
2022/07/14 00:05:00;;;;;;;4.63;2.60;;;;;26.10;100945.00;;;;2071105;28;20304;-53
2022/07/14 00:06:00;;;;;;;4.63;3.07;;;;;26.10;100936.00;;;;2071110;28;20218;-53
2022/07/14 00:07:01;;;;;;;4.33;3.20;;;;;26.10;100939.00;;;;2071610;28;20228;-53
2022/07/14 00:08:02;;;;;;;4.47;2.80;;;;;26.10;100939.00;;;;2070582;28;20259;-53
2022/07/14 00:09:03;;;;;;;4.30;2.73;;;;;26.10;100948.00;;;;2071683;28;20364;-53
2022/07/14 00:10:03;;;;;;;3.33;2.60;;;;;26.10;100942.00;;;;2071721;28;20588;-53
2022/07/14 00:11:04;;;;;;;3.20;2.60;;;;;26.10;100935.00;;;;2071646;28;20276;-53
2022/07/14 00:12:05;;;;;;;3.50;2.67;;;;;25.70;100943.00;;;;2070381;28;20219;-53
2022/07/14 00:13:05;;;;;;;4.40;2.70;;;;;26.00;100943.00;;;;2070745;28;20532;-58
2022/07/14 00:14:05;;;;;;;3.60;2.70;;;;;26.10;100948.00;;;;2071638;28;20256;-57
2022/07/14 00:15:06;;;;;;;4.30;3.10;;;;;26.00;100940.00;;;;2071621;28;20215;-55
2022/07/14 00:16:07;;;;;;;3.50;2.80;;;;;26.00;100944.00;;;;2070950;28;20572;-54
2022/07/14 00:17:07;;;;;;;4.73;3.00;;;;;25.70;100939.00;;;;2070955;28;20457;-54
2022/07/14 00:18:07;;;;;;;4.63;2.63;;;;;26.00;100933.00;;;;2070603;28;20237;-53
2022/07/14 00:19:08;;;;;;;3.80;2.70;;;;;26.00;100939.00;;;;2071763;28;20210;-52
2022/07/14 00:20:09;;;;;;;4.80;2.80;;;;;26.00;100922.00;;;;2070562;28;20713;-53
2022/07/14 00:21:10;;;;;;;2.90;2.50;;;;;26.00;100945.00;;;;2074997;28;20209;-53
2022/07/14 00:22:10;;;;;;;4.00;2.37;;;;;26.00;100930.00;;;;2079708;28;20460;-54
2022/07/14 00:23:10;;;;;;;3.67;2.40;;;;;26.00;100929.00;;;;2079562;28;20452;-53
2022/07/14 00:24:12;;;;;;;3.43;2.47;;;;;26.00;100922.00;;;;2079214;28;20285;-53
2022/07/14 00:25:13;;;;;;;4.70;2.63;;;;;26.00;100927.00;;;;2079851;28;20219;-53
2022/07/14 00:26:13;;;;;;;2.93;2.27;;;;;26.00;100936.00;;;;2079709;28;20460;-53
2022/07/14 00:27:14;;;;;;;4.70;2.73;;;;;26.00;100941.00;;;;2079388;28;20739;-53
2022/07/14 00:28:14;;;;;;;3.47;2.53;;;;;26.00;100943.00;;;;2079020;28;20632;-53
2022/07/14 00:29:14;;;;;;;4.90;2.83;;;;;26.00;100940.00;;;;2079642;28;20650;-54
2022/07/14 00:30:15;;;;;;;4.80;3.10;;;;;26.00;100942.00;;;;2078760;28;20218;-53
2022/07/14 00:31:15;;;;;;;4.20;2.30;;;;;26.00;100951.00;;;;2079006;28;20271;-57
2022/07/14 00:32:15;;;;;;;4.37;2.40;;;;;26.00;100945.00;;;;2079568;28;20296;-53
2022/07/14 00:33:16;;;;;;;4.80;2.50;;;;;26.00;100942.00;;;;2079523;28;20214;-53
2022/07/14 00:34:16;;;;;;;4.70;2.80;;;;;26.00;100941.00;;;;2079592;28;20268;-53
2022/07/14 00:35:16;;;;;;;4.83;3.00;;;;;26.00;100943.00;;;;2079814;28;20929;-53
2022/07/14 00:36:17;;;;;;;4.00;3.00;;;;;26.00;100934.00;;;;2079670;28;20307;-53
2022/07/14 00:37:17;;;;;;;3.87;2.70;;;;;26.00;100944.00;;;;2078875;28;20259;-53
2022/07/14 00:38:17;;;;;;;5.40;2.90;;;;;26.00;100930.00;;;;2079355;28;20210;-53
2022/07/14 00:39:18;;;;;;;6.07;2.50;;;;;26.00;100935.00;;;;2078958;28;20205;-53
2022/07/14 00:40:18;;;;;;;4.90;2.63;;;;;26.00;100929.00;;;;2079112;28;20212;-53
2022/07/14 00:41:19;;;;;;;3.73;2.77;;;;;26.00;100927.00;;;;2078780;28;20214;-53
2022/07/14 00:42:39;;;;;;;6.90;2.27;;;;;26.00;100929.00;;;;2078605;28;20209;-53
2022/07/14 00:43:39;;;;;;;4.68;2.58;;;;;26.00;100929.00;;;;2078697;28;20463;-53
2022/07/14 00:44:40;;;;;;;3.93;2.70;;;;;26.00;100924.00;;;;2078197;28;20221;-53
2022/07/14 00:45:40;;;;;;;3.20;2.30;;;;;26.00;100925.00;;;;2078555;28;20609;-52
2022/07/14 00:46:40;;;;;;;5.50;3.07;;;;;26.00;100920.00;;;;2078192;28;20640;-54
2022/07/14 00:47:42;;;;;;;9.03;3.47;;;;;26.00;100921.00;;;;2077083;28;20217;-56
2022/07/14 00:48:42;;;;;;;3.95;2.60;;;;;26.00;100918.00;;;;2078672;28;20232;-57
2022/07/14 00:49:42;;;;;;;4.87;2.70;;;;;26.00;100919.00;;;;2078617;28;20240;-56
2022/07/14 00:50:44;;;;;;;4.10;2.43;;;;;26.00;100923.00;;;;2078679;28;20236;-55
2022/07/14 00:51:44;;;;;;;4.73;2.63;;;;;26.00;100922.00;;;;2070051;28;20288;-54
2022/07/14 00:52:45;;;;;;;3.33;2.50;;;;;26.00;100923.00;;;;2070665;28;20458;-54
2022/07/14 00:53:52;;;;;;;3.70;2.38;;;;;26.00;100916.00;;;;2070539;28;20222;-54
2022/07/14 00:54:53;;;;;;;6.60;2.50;;;;;26.00;100914.00;;;;2078638;28;20225;-55
2022/07/14 00:55:53;;;;;;;5.30;2.53;;;;;26.00;100917.00;;;;2079723;28;20464;-53
2022/07/14 00:56:54;;;;;;;4.40;2.27;;;;;26.00;100923.00;;;;2074034;28;20232;-54
2022/07/14 00:57:54;;;;;;;7.37;2.60;;;;;26.00;100923.00;;;;2070912;28;20272;-55
2022/07/14 00:58:54;;;;;;;4.83;2.40;;;;;26.00;100919.00;;;;2071531;28;20210;-54
2022/07/14 00:59:56;;;;;;;4.53;2.63;;;;;26.00;100919.00;;;;2071246;28;20309;-54
2022/07/14 01:00:56;;;;;;;4.47;2.80;;;;;26.00;100912.00;;;;2070745;28;20320;-54
2022/07/14 01:01:56;;;;;;;4.00;2.50;;;;;26.00;100921.00;;;;2073166;28;20457;-54
2022/07/14 01:02:57;;;;;;;4.57;2.80;;;;;26.00;100923.00;;;;2077350;28;20234;-54
2022/07/14 01:03:57;;;;;;;6.20;2.80;;;;;26.00;100925.00;;;;2078787;28;20305;-54
2022/07/14 01:04:57;;;;;;;3.80;2.60;;;;;26.00;100929.00;;;;2077870;28;20217;-55
2022/07/14 01:05:58;;;;;;;4.13;2.60;;;;;25.70;100937.00;;;;2072031;28;20223;-54
2022/07/14 01:06:58;;;;;;;5.70;2.77;;;;;26.00;100931.00;;;;2079499;28;20212;-54
2022/07/14 01:07:58;;;;;;;7.03;3.50;;;;;26.00;100924.00;;;;2078309;28;20205;-54
2022/07/14 01:08:59;;;;;;;5.53;2.90;;;;;25.90;100918.00;;;;2079631;28;20213;-55
2022/07/14 01:09:59;;;;;;;5.30;2.90;;;;;26.00;100914.00;;;;2079287;28;20662;-54
2022/07/14 01:10:59;;;;;;;5.10;2.80;;;;;25.90;100912.00;;;;2079429;28;20841;-54
2022/07/14 01:12:00;;;;;;;5.10;2.30;;;;;25.90;100917.00;;;;2075529;28;20353;-55
2022/07/14 01:13:03;;;;;;;5.13;2.93;;;;;26.00;100909.00;;;;2070677;28;20211;-54
2022/07/14 01:14:03;;;;;;;8.70;3.25;;;;;26.00;100916.00;;;;2062015;28;20222;-54
2022/07/14 01:15:04;;;;;;;5.10;2.87;;;;;26.00;100916.00;;;;2070120;28;20213;-54
2022/07/14 01:16:05;;;;;;;4.00;2.87;;;;;25.90;100922.00;;;;2070353;28;21576;-55
2022/07/14 01:17:07;;;;;;;5.03;2.83;;;;;25.90;100931.00;;;;2070607;28;20651;-54
2022/07/14 01:18:07;;;;;;;3.78;2.28;;;;;25.90;100930.00;;;;2070459;28;20449;-54
2022/07/14 01:19:08;;;;;;;4.20;2.67;;;;;25.90;100922.00;;;;2071393;28;20224;-53
2022/07/14 01:20:09;;;;;;;6.33;3.03;;;;;25.90;100922.00;;;;2071275;28;20216;-57
2022/07/14 01:21:10;;;;;;;5.10;2.57;;;;;25.90;100933.00;;;;2070982;28;20487;-54
2022/07/14 01:22:10;;;;;;;4.70;2.70;;;;;25.90;100932.00;;;;2069560;28;20218;-54
2022/07/14 01:23:10;;;;;;;5.53;3.00;;;;;25.90;100930.00;;;;2071074;28;20210;-54
2022/07/14 01:24:10;;;;;;;6.27;2.93;;;;;25.90;100928.00;;;;2070173;28;20327;-54
2022/07/14 01:25:11;;;;;;;5.30;2.77;;;;;25.90;100921.00;;;;2070232;28;20218;-54
2022/07/14 01:26:12;;;;;;;4.10;2.65;;;;;25.90;100912.00;;;;2070424;28;20215;-54
2022/07/14 01:27:12;;;;;;;6.03;3.20;;;;;25.90;100917.00;;;;2070283;28;20212;-54
2022/07/14 01:28:13;;;;;;;7.73;3.17;;;;;25.90;100915.00;;;;2074231;28;20240;-55
2022/07/14 01:29:13;;;;;;;6.07;2.83;;;;;25.90;100916.00;;;;2079424;28;20214;-54
2022/07/14 01:30:13;;;;;;;7.83;3.17;;;;;25.90;100905.00;;;;2079281;28;20557;-54
2022/07/14 01:31:14;;;;;;;8.50;3.43;;;;;25.90;100912.00;;;;2079369;28;20568;-54
2022/07/14 01:32:14;;;;;;;4.50;2.33;;;;;25.90;100910.00;;;;2079156;28;20230;-54
2022/07/14 01:33:14;;;;;;;4.73;2.83;;;;;25.90;100919.00;;;;2067571;28;20210;-54
2022/07/14 01:34:15;;;;;;;6.27;3.47;;;;;25.90;100916.00;;;;2071129;28;20230;-54
2022/07/14 01:35:15;;;;;;;4.47;2.60;;;;;25.90;100914.00;;;;2071302;28;20268;-54
2022/07/14 01:36:15;;;;;;;5.13;3.07;;;;;25.90;100916.00;;;;2071146;28;20264;-53
2022/07/14 01:37:16;;;;;;;6.70;3.77;;;;;25.90;100949.00;;;;2070299;28;20242;-54
2022/07/14 01:38:16;;;;;;;6.63;3.03;;;;;25.90;100911.00;;;;2070622;28;20214;-54
2022/07/14 01:39:16;;;;;;;5.33;2.93;;;;;25.90;100909.00;;;;2071244;28;20584;-54
2022/07/14 01:40:17;;;;;;;6.10;3.07;;;;;25.90;100910.00;;;;2071155;28;20282;-54
2022/07/14 01:41:18;;;;;;;7.20;3.10;;;;;25.90;100916.00;;;;2070962;28;20292;-55
2022/07/14 01:42:19;;;;;;;5.00;3.00;;;;;25.90;100921.00;;;;2070798;28;20310;-60
2022/07/14 01:43:19;;;;;;;5.87;2.70;;;;;25.90;100925.00;;;;2071109;28;20460;-57
2022/07/14 01:44:20;;;;;;;5.30;2.47;;;;;25.90;100927.00;;;;2070804;28;20214;-58
2022/07/14 01:45:20;;;;;;;4.77;2.53;;;;;25.90;100921.00;;;;2071177;28;20214;-54
2022/07/14 01:46:21;;;;;;;5.90;2.73;;;;;25.90;100915.00;;;;2070969;28;20206;-54
2022/07/14 01:47:21;;;;;;;6.93;3.10;;;;;25.90;100926.00;;;;2069495;28;20233;-55
2022/07/14 01:48:21;;;;;;;5.43;2.90;;;;;25.90;100926.00;;;;2070099;28;20222;-55
2022/07/14 01:49:22;;;;;;;4.57;2.70;;;;;25.80;100925.00;;;;2070908;28;20269;-54
2022/07/14 01:50:22;;;;;;;6.97;3.20;;;;;25.80;100928.00;;;;2070839;28;20214;-56
2022/07/14 01:51:22;;;;;;;9.13;3.20;;;;;25.80;100921.00;;;;2070840;28;20221;-53
2022/07/14 01:52:23;;;;;;;5.90;3.10;;;;;25.80;100917.00;;;;2070879;28;20221;-54
2022/07/14 01:53:23;;;;;;;5.57;3.00;;;;;25.80;100924.00;;;;2070877;28;20206;-54
2022/07/14 01:54:24;;;;;;;5.90;2.60;;;;;25.80;100922.00;;;;2070821;28;20214;-54
2022/07/14 01:55:25;;;;;;;6.17;2.80;;;;;25.80;100921.00;;;;2070952;28;20217;-53
2022/07/14 01:56:25;;;;;;;5.60;2.60;;;;;25.80;100920.00;;;;2070757;28;20451;-53
2022/07/14 01:57:25;;;;;;;4.67;2.70;;;;;25.80;100916.00;;;;2069974;28;20210;-54
2022/07/14 01:58:26;;;;;;;5.77;3.03;;;;;25.80;100924.00;;;;2070696;28;20230;-54
2022/07/14 01:59:26;;;;;;;6.50;3.40;;;;;25.80;100930.00;;;;2070778;28;20272;-54
2022/07/14 02:00:26;;;;;;;4.87;2.90;;;;;25.80;100927.00;;;;2070971;28;20206;-54
2022/07/14 02:01:39;;;;;;;4.40;2.80;;;;;25.80;100929.00;;;;2070169;28;20233;-54
2022/07/14 02:02:39;;;;;;;3.33;2.50;;;;;25.80;100933.00;;;;2070382;28;20210;-54
2022/07/14 02:03:39;;;;;;;6.43;3.00;;;;;25.80;100934.00;;;;2070585;28;20847;-54
2022/07/14 02:04:40;;;;;;;6.00;2.90;;;;;25.80;100931.00;;;;2068570;28;20597;-53
2022/07/14 02:05:44;;;;;;;7.00;2.70;;;;;25.80;100931.00;;;;2070799;28;20672;-53
2022/07/14 02:06:51;;;;;;;6.00;3.00;;;;;25.80;100935.00;;;;2070135;28;20226;-54
2022/07/14 02:07:53;;;;;;;3.80;2.57;;;;;25.80;100935.00;;;;2062601;28;21069;-54
2022/07/14 02:08:53;;;;;;;5.80;2.87;;;;;25.80;100936.00;;;;2070298;28;20461;-53
2022/07/14 02:12:31;;;;;;;6.75;2.72;;;;;25.80;100938.00;;;;2070165;28;20469;-54
2022/07/14 02:13:31;;;;;;;5.13;2.63;;;;;25.80;100939.00;;;;2069533;28;20678;-54
2022/07/14 02:14:32;;;;;;;9.20;3.13;;;;;25.80;100935.00;;;;2069803;28;20733;-53
2022/07/14 02:15:32;;;;;;;5.50;2.80;;;;;25.80;100935.00;;;;2070443;28;20215;-54
2022/07/14 02:16:33;;;;;;;5.33;2.93;;;;;25.80;100934.00;;;;2070983;28;20241;-54
2022/07/14 02:17:33;;;;;;;5.10;2.30;;;;;25.80;100937.00;;;;2069938;28;20218;-53
2022/07/14 02:18:33;;;;;;;5.67;2.60;;;;;25.80;100932.00;;;;2070469;28;20248;-54
2022/07/14 02:19:35;;;;;;;7.70;3.33;;;;;25.80;100937.00;;;;2070565;28;20226;-53
2022/07/14 02:20:35;;;;;;;4.20;2.50;;;;;25.80;100942.00;;;;2070705;28;20581;-54
2022/07/14 02:21:37;;;;;;;7.67;3.13;;;;;25.80;100935.00;;;;2070767;28;20456;-54
2022/07/14 02:22:37;;;;;;;4.15;2.50;;;;;25.70;100936.00;;;;2070081;28;20209;-54
2022/07/14 02:23:38;;;;;;;5.83;2.50;;;;;25.70;100933.00;;;;2069781;28;20222;-56
2022/07/14 02:24:38;;;;;;;5.50;2.50;;;;;25.70;100916.00;;;;2069450;28;20210;-54
2022/07/14 02:25:38;;;;;;;4.03;2.30;;;;;25.70;100919.00;;;;2068676;28;20206;-54
2022/07/14 02:26:39;;;;;;;5.17;2.40;;;;;25.70;100916.00;;;;2070190;28;20252;-54
2022/07/14 02:27:39;;;;;;;4.70;2.57;;;;;25.40;100919.00;;;;2068643;28;20202;-54
2022/07/14 02:28:40;;;;;;;5.70;2.50;;;;;25.70;100915.00;;;;2069725;28;20233;-54
2022/07/14 02:29:40;;;;;;;6.87;2.77;;;;;25.80;100918.00;;;;2069840;28;20254;-54
2022/07/14 02:30:41;;;;;;;5.53;2.70;;;;;25.70;100915.00;;;;2069663;28;20471;-53
2022/07/14 02:31:42;;;;;;;5.20;2.77;;;;;25.70;100905.00;;;;2070199;28;20210;-53
2022/07/14 02:32:42;;;;;;;5.53;2.80;;;;;25.70;100920.00;;;;2069735;28;20220;-53
2022/07/14 02:33:43;;;;;;;4.33;2.57;;;;;25.70;100906.00;;;;2069600;28;20457;-54
2022/07/14 02:34:43;;;;;;;6.03;2.30;;;;;25.70;100901.00;;;;2069904;28;20258;-54
2022/07/14 02:35:44;;;;;;;4.67;2.83;;;;;25.70;100902.00;;;;2069454;28;20737;-53
2022/07/14 02:36:45;;;;;;;5.18;2.50;;;;;25.70;100925.00;;;;2070292;28;20238;-55
2022/07/14 02:37:45;;;;;;;3.97;2.30;;;;;25.70;100900.00;;;;2069587;28;20686;-55
2022/07/14 02:38:45;;;;;;;4.63;2.27;;;;;25.70;100905.00;;;;2066466;28;20233;-55
2022/07/14 02:39:48;;;;;;;5.67;3.00;;;;;25.70;100906.00;;;;2070371;28;20210;-55
2022/07/14 02:40:48;;;;;;;5.10;2.42;;;;;25.70;100905.00;;;;2070380;28;20215;-56
2022/07/14 02:41:49;;;;;;;6.47;2.70;;;;;25.70;100905.00;;;;2070326;28;20222;-56
2022/07/14 02:42:49;;;;;;;5.33;2.97;;;;;25.70;100905.00;;;;2070476;28;20246;-55
2022/07/14 02:43:49;;;;;;;5.47;2.63;;;;;25.70;100909.00;;;;2070224;28;20214;-55
2022/07/14 02:44:50;;;;;;;5.70;2.63;;;;;25.70;100907.00;;;;2070047;28;20214;-55
2022/07/14 02:45:50;;;;;;;4.70;2.43;;;;;25.70;100908.00;;;;2070426;28;20241;-55
2022/07/14 02:46:50;;;;;;;6.87;3.00;;;;;25.70;100899.00;;;;2070284;28;20214;-55
2022/07/14 02:47:51;;;;;;;5.17;2.47;;;;;25.70;100908.00;;;;2072397;28;20233;-54
2022/07/14 02:48:51;;;;;;;5.17;2.70;;;;;25.70;100911.00;;;;2069496;28;20716;-56
2022/07/14 02:49:51;;;;;;;7.13;2.90;;;;;25.70;100908.00;;;;2070131;28;20708;-56
2022/07/14 02:51:00;;;;;;;6.53;2.60;;;;;25.70;100907.00;;;;2070296;28;20210;-56
2022/07/14 02:52:00;;;;;;;5.55;2.67;;;;;25.70;100910.00;;;;2070327;28;20242;-56
2022/07/14 02:53:01;;;;;;;6.13;2.83;;;;;25.70;100905.00;;;;2069325;28;20714;-58
2022/07/14 02:54:01;;;;;;;4.07;2.77;;;;;25.70;100913.00;;;;2070344;28;20880;-57
2022/07/14 02:55:01;;;;;;;5.43;2.60;;;;;25.70;100913.00;;;;2069164;28;20664;-56
2022/07/14 02:56:05;;;;;;;4.70;2.70;;;;;25.70;100912.00;;;;2061316;28;20226;-56
2022/07/14 02:57:06;;;;;;;5.82;2.53;;;;;25.70;100815.00;;;;2069470;28;20233;-56
2022/07/14 02:58:06;;;;;;;5.43;2.43;;;;;25.70;100909.00;;;;2069357;28;20580;-56
2022/07/14 02:59:07;;;;;;;6.33;2.50;;;;;25.70;100909.00;;;;2069052;28;20210;-56
2022/07/14 03:00:08;;;;;;;5.07;2.53;;;;;25.70;100915.00;;;;2069457;28;20233;-55
2022/07/14 03:01:09;;;;;;;5.82;3.10;;;;;25.70;100903.00;;;;2070224;28;20653;-57
2022/07/14 03:02:09;;;;;;;4.93;2.50;;;;;25.70;100903.00;;;;2069394;28;20218;-54
2022/07/14 03:03:10;;;;;;;4.57;2.57;;;;;25.70;100905.00;;;;2069925;28;20562;-54
2022/07/14 03:04:10;;;;;;;4.17;2.50;;;;;25.70;100910.00;;;;2070080;28;20229;-54
2022/07/14 03:05:11;;;;;;;6.43;2.70;;;;;25.70;100909.00;;;;2069311;28;20221;-54
2022/07/14 03:06:13;;;;;;;6.93;2.50;;;;;25.70;100913.00;;;;2069622;28;20284;-54
2022/07/14 03:07:13;;;;;;;6.60;2.37;;;;;25.70;100944.00;;;;2070012;28;20300;-55
2022/07/14 03:08:13;;;;;;;6.57;2.70;;;;;25.70;100911.00;;;;2069559;28;21052;-55
2022/07/14 03:09:14;;;;;;;4.73;2.20;;;;;25.70;100907.00;;;;2069432;28;20710;-55
2022/07/14 03:10:14;;;;;;;4.63;2.43;;;;;25.70;100906.00;;;;2069418;28;20292;-55
2022/07/14 03:11:14;;;;;;;5.80;2.93;;;;;25.60;100909.00;;;;2062231;28;20284;-56
2022/07/14 03:12:15;;;;;;;4.80;2.00;;;;;25.70;100907.00;;;;2069887;28;20218;-55
2022/07/14 03:13:15;;;;;;;4.80;2.67;;;;;25.70;100907.00;;;;2069092;28;20245;-56
2022/07/14 03:14:15;;;;;;;5.63;2.37;;;;;25.70;100903.00;;;;2069762;28;20210;-56
2022/07/14 03:15:16;;;;;;;5.80;3.00;;;;;25.70;100899.00;;;;2070088;28;20210;-55
2022/07/14 03:16:16;;;;;;;5.90;2.30;;;;;25.70;100917.00;;;;2070166;28;20241;-56
2022/07/14 03:17:17;;;;;;;4.23;2.20;;;;;25.70;100920.00;;;;2069264;28;20272;-56
2022/07/14 03:18:18;;;;;;;4.43;2.15;;;;;25.70;100919.00;;;;2069706;28;20283;-56
2022/07/14 03:19:18;;;;;;;5.50;2.60;;;;;25.70;100913.00;;;;2070027;28;20227;-56
2022/07/14 03:20:19;;;;;;;4.60;2.30;;;;;25.70;100918.00;;;;2069841;28;20207;-56
2022/07/14 03:21:19;;;;;;;9.37;3.10;;;;;25.70;100924.00;;;;2070122;28;20210;-55
2022/07/14 03:22:19;;;;;;;4.57;2.63;;;;;25.60;100925.00;;;;2069993;28;20218;-56
2022/07/14 03:23:20;;;;;;;5.30;2.30;;;;;25.70;100924.00;;;;2069503;28;20561;-56
2022/07/14 03:24:20;;;;;;;6.10;2.50;;;;;25.60;100924.00;;;;2033548;28;1054447;-56
2022/07/14 03:25:22;;;;;;;5.53;2.13;;;;;25.60;100929.00;;;;2070450;28;20214;-56
2022/07/14 03:26:22;;;;;;;7.60;2.90;;;;;25.60;100917.00;;;;2069027;28;20755;-56
2022/07/14 03:27:22;;;;;;;5.47;2.30;;;;;25.60;100930.00;;;;2069527;28;20465;-54
2022/07/14 03:28:23;;;;;;;4.57;2.03;;;;;25.60;100926.00;;;;2070493;28;20566;-54
2022/07/14 03:29:23;;;;;;;4.67;2.40;;;;;25.70;100950.00;;;;2070331;28;21110;-54
2022/07/14 03:30:23;;;;;;;6.13;2.90;;;;;25.60;100924.00;;;;2070551;28;20793;-54
2022/07/14 03:31:24;;;;;;;6.33;2.47;;;;;25.60;100926.00;;;;2072849;28;20331;-54
2022/07/14 03:32:24;;;;;;;6.57;2.77;;;;;25.60;100933.00;;;;2078430;28;20987;-54
2022/07/14 03:33:24;;;;;;;6.40;2.47;;;;;25.60;100927.00;;;;2077861;28;20565;-54
2022/07/14 03:34:25;;;;;;;6.60;2.47;;;;;25.60;100928.00;;;;2077756;28;20218;-54
2022/07/14 03:35:26;;;;;;;3.50;2.13;;;;;25.60;100928.00;;;;2078418;28;20221;-54
2022/07/14 03:36:26;;;;;;;4.25;2.45;;;;;25.60;100924.00;;;;2078332;28;20294;-53
2022/07/14 03:37:26;;;;;;;4.47;1.90;;;;;25.60;100922.00;;;;2077723;28;20213;-54
2022/07/14 03:38:27;;;;;;;5.43;2.37;;;;;25.60;100920.00;;;;2078648;28;20210;-55
2022/07/14 03:39:27;;;;;;;8.17;3.10;;;;;25.60;100913.00;;;;2077894;28;20216;-55
2022/07/14 03:40:27;;;;;;;5.70;2.60;;;;;25.60;100917.00;;;;2078413;28;23047;-56
2022/07/14 03:41:28;;;;;;;5.60;2.30;;;;;25.60;100912.00;;;;2078192;28;20295;-55
2022/07/14 03:42:28;;;;;;;5.70;2.30;;;;;25.60;100903.00;;;;2078221;28;20221;-55
2022/07/14 03:43:29;;;;;;;5.87;2.50;;;;;25.60;100905.00;;;;2078480;28;20228;-54
2022/07/14 03:44:29;;;;;;;5.67;2.57;;;;;25.60;100898.00;;;;2077454;28;20218;-55
2022/07/14 03:45:29;;;;;;;3.50;2.10;;;;;25.60;100900.00;;;;2077634;28;20220;-55
2022/07/14 03:46:30;;;;;;;5.53;2.30;;;;;25.60;100896.00;;;;2077921;28;20205;-55
2022/07/14 03:47:30;;;;;;;5.00;2.43;;;;;25.60;100895.00;;;;2077402;28;20246;-55
2022/07/14 03:48:31;;;;;;;4.60;2.00;;;;;25.60;100905.00;;;;2077791;28;20225;-55
2022/07/14 03:49:31;;;;;;;6.60;2.43;;;;;25.60;100897.00;;;;2078288;28;20232;-55
2022/07/14 03:50:32;;;;;;;6.10;2.10;;;;;25.60;100902.00;;;;2073897;28;20457;-55
2022/07/14 03:51:32;;;;;;;6.20;2.30;;;;;25.60;100899.00;;;;2069798;28;20296;-55
2022/07/14 03:52:32;;;;;;;4.30;2.17;;;;;25.60;100894.00;;;;2069788;28;20218;-55
2022/07/14 03:53:33;;;;;;;5.40;2.83;;;;;25.60;100899.00;;;;2069952;28;20213;-55
2022/07/14 03:54:33;;;;;;;6.20;2.40;;;;;25.60;100902.00;;;;2069717;28;20542;-54
2022/07/14 03:55:33;;;;;;;5.40;2.30;;;;;25.60;100904.00;;;;2070031;28;20221;-55
2022/07/14 03:56:34;;;;;;;4.07;2.13;;;;;25.60;100898.00;;;;2068084;28;20225;-55
2022/07/14 03:57:34;;;;;;;6.30;3.03;;;;;25.50;100905.00;;;;2069524;28;20321;-55
2022/07/14 03:58:35;;;;;;;5.30;2.13;;;;;25.60;100900.00;;;;2070212;28;20221;-55
2022/07/14 03:59:40;;;;;;;6.33;2.50;;;;;25.60;100898.00;;;;2069097;28;20221;-55
2022/07/14 04:00:40;;;;;;;3.53;1.73;;;;;25.50;100892.00;;;;2072199;28;20214;-55
2022/07/14 04:01:41;;;;;;;5.50;2.17;;;;;25.60;100894.00;;;;2078352;28;20456;-55
2022/07/14 04:02:41;;;;;;;7.90;2.67;;;;;25.60;100909.00;;;;2078226;28;20233;-55
2022/07/14 04:03:42;;;;;;;4.10;1.80;;;;;25.50;100896.00;;;;2078381;28;20268;-55
2022/07/14 04:04:42;;;;;;;3.20;2.10;;;;;25.50;100895.00;;;;2078434;28;20221;-55
2022/07/14 04:05:43;;;;;;;4.93;2.10;;;;;25.60;100897.00;;;;2077405;28;20818;-59
2022/07/14 04:06:43;;;;;;;5.10;2.60;;;;;25.60;100888.00;;;;2077463;28;20201;-57
2022/07/14 04:07:43;;;;;;;5.50;2.50;;;;;25.50;100883.00;;;;2077748;28;20217;-57
2022/07/14 04:08:46;;;;;;;9.80;2.80;;;;;25.50;100885.00;;;;2078332;28;20292;-57
2022/07/14 04:09:46;;;;;;;7.50;2.90;;;;;25.50;100884.00;;;;2078183;28;20700;-56
2022/07/14 04:10:47;;;;;;;5.13;2.40;;;;;25.50;100887.00;;;;2078164;28;20452;-56
2022/07/14 04:11:48;;;;;;;4.90;2.40;;;;;25.50;100887.00;;;;2077239;28;20217;-55
2022/07/14 04:12:48;;;;;;;3.53;1.83;;;;;25.50;100885.00;;;;2078341;28;20712;-56
2022/07/14 04:13:49;;;;;;;5.17;2.10;;;;;25.50;100893.00;;;;2078286;28;20437;-56
2022/07/14 04:14:49;;;;;;;5.50;2.20;;;;;25.50;100891.00;;;;2077650;28;20214;-55
2022/07/14 04:15:49;;;;;;;5.60;2.30;;;;;25.50;100893.00;;;;2078331;28;20289;-55
2022/07/14 04:16:50;;;;;;;5.77;2.00;;;;;25.50;100886.00;;;;2078240;28;20252;-55
2022/07/14 04:17:50;;;;;;;5.83;2.10;;;;;25.60;100893.00;;;;2077517;28;20684;-55
2022/07/14 04:18:51;;;;;;;6.30;2.50;;;;;25.50;100895.00;;;;2078333;28;20773;-55
2022/07/14 04:19:51;;;;;;;7.33;2.67;;;;;25.50;100900.00;;;;2078307;28;20214;-55
2022/07/14 04:20:51;;;;;;;5.10;2.13;;;;;25.50;100893.00;;;;2077853;28;20222;-55
2022/07/14 04:21:52;;;;;;;5.17;2.23;;;;;25.50;100901.00;;;;2078271;28;20306;-56
2022/07/14 04:22:52;;;;;;;4.40;2.00;;;;;25.50;100895.00;;;;2078382;28;20697;-56
2022/07/14 04:23:52;;;;;;;5.43;2.23;;;;;25.50;100890.00;;;;2078073;28;20734;-55
2022/07/14 04:24:53;;;;;;;6.93;2.67;;;;;25.50;100895.00;;;;2078500;28;20226;-56
2022/07/14 04:25:53;;;;;;;5.57;2.20;;;;;25.50;100856.00;;;;2079037;28;20220;-54
2022/07/14 04:26:53;;;;;;;6.37;2.30;;;;;25.50;100901.00;;;;2070921;28;20210;-54
2022/07/14 04:27:54;;;;;;;5.10;2.20;;;;;25.50;100899.00;;;;2078035;28;20723;-54
2022/07/14 04:28:54;;;;;;;5.97;2.30;;;;;25.50;100895.00;;;;2079709;28;20732;-54
2022/07/14 04:29:54;;;;;;;4.27;1.93;;;;;25.50;100892.00;;;;2079539;28;20214;-55
2022/07/14 04:30:55;;;;;;;6.80;2.43;;;;;25.50;100904.00;;;;2079741;28;20217;-56
2022/07/14 04:31:55;;;;;;;4.13;2.10;;;;;25.50;100898.00;;;;2078686;28;20221;-56
2022/07/14 04:32:56;;;;;;;4.47;2.00;;;;;25.50;100890.00;;;;2079679;28;20257;-56
2022/07/14 04:33:56;;;;;;;5.20;2.00;;;;;25.50;100898.00;;;;2073900;28;20220;-54
2022/07/14 04:34:57;;;;;;;4.10;1.70;;;;;25.50;100893.00;;;;2071299;28;20206;-54
2022/07/14 04:35:57;;;;;;;6.57;2.20;;;;;25.50;100892.00;;;;2071566;28;20213;-54
2022/07/14 04:36:57;;;;;;;6.97;2.10;;;;;25.50;100887.00;;;;2071664;28;20234;-54
2022/07/14 04:37:58;;;;;;;3.90;1.70;;;;;25.50;100901.00;;;;2070640;28;20269;-54
2022/07/14 04:38:58;;;;;;;4.87;2.10;;;;;25.50;100906.00;;;;2071695;28;20218;-54
2022/07/14 04:39:58;;;;;;;6.70;2.30;;;;;25.50;100906.00;;;;2070730;28;20203;-54
2022/07/14 04:41:00;;;;;;;4.90;2.40;;;;;25.50;100906.00;;;;2067964;28;20207;-54
2022/07/14 04:42:00;;;;;;;4.03;2.28;;;;;25.50;100910.00;;;;2071104;28;20214;-54
2022/07/14 04:43:01;;;;;;;4.70;1.80;;;;;25.20;100916.00;;;;2071433;28;20242;-54
2022/07/14 04:44:01;;;;;;;4.63;2.10;;;;;25.10;100907.00;;;;2071577;28;20469;-54
2022/07/14 04:45:03;;;;;;;5.10;2.20;;;;;25.50;100913.00;;;;2071311;28;20964;-55
2022/07/14 04:46:03;;;;;;;5.05;1.98;;;;;25.50;100906.00;;;;2070515;28;20577;-54
2022/07/14 04:47:03;;;;;;;4.70;2.00;;;;;25.50;100915.00;;;;2070729;28;20274;-55
2022/07/14 04:48:04;;;;;;;5.03;2.10;;;;;25.50;100913.00;;;;2070556;28;20225;-54
2022/07/14 04:53:01;;;;;;;5.70;2.05;;;;;25.50;100918.00;;;;2071102;28;20556;-55
2022/07/14 04:54:01;;;;;;;6.33;1.93;;;;;25.50;100917.00;;;;2071215;28;20218;-55
2022/07/14 04:55:02;;;;;;;5.10;2.13;;;;;25.50;100922.00;;;;2071228;28;20210;-56
2022/07/14 04:56:02;;;;;;;5.80;2.40;;;;;25.50;100912.00;;;;2071206;28;20713;-56
2022/07/14 04:57:03;;;;;;;7.03;2.53;;;;;25.50;100905.00;;;;2071330;28;20682;-56
2022/07/14 04:58:04;;;;;;;5.13;2.05;;;;;25.50;100910.00;;;;2070410;28;20217;-56
2022/07/14 04:59:04;;;;;;;5.40;2.00;;;;;25.50;100914.00;;;;2071397;28;20242;-55
2022/07/14 05:00:05;;;;;;;6.33;2.47;;;;;25.50;100910.00;;;;2071318;28;20218;-55
2022/07/14 05:01:06;;;;;;;4.60;2.15;;;;;25.40;100909.00;;;;2071265;28;20734;-56
2022/07/14 05:02:06;;;;;;;5.83;2.30;;;;;25.50;100911.00;;;;2070438;28;20250;-56
2022/07/14 05:03:06;;;;;;;6.00;2.13;;;;;25.50;100914.00;;;;2071215;28;20222;-56
2022/07/14 05:04:06;;;;;;;6.20;2.40;;;;;25.50;100915.00;;;;2071239;28;20229;-56
2022/07/14 05:05:07;;;;;;;6.07;2.17;;;;;25.50;100902.00;;;;2071173;28;20252;-56
2022/07/14 05:06:08;;;;;;;5.87;2.40;;;;;25.50;100908.00;;;;2071192;28;20218;-56
2022/07/14 05:07:08;;;;;;;5.57;2.07;;;;;25.50;100901.00;;;;2070926;28;20248;-56